Time;durP1;ratioP1;P1;durP2;ratioP2;P2;SDS_P1;SDS_P2;PMS_P1;PMS_P2;Temp;Humidity;BMP_temperature;BMP_pressure;BME280_temperature;BME280_humidity;BME280_pressure;Samples;Min_cycle;Max_cycle;Signal;HPM_P1;HPM_P2
2023/05/18 00:01:34;;;;;;;3.73;2.73;;;18.60;69.50;;;;;;4975972;28;20783;-74
2023/05/18 00:04:00;;;;;;;3.63;2.60;;;18.60;69.50;;;;;;4975857;28;20507;-73
2023/05/18 00:06:26;;;;;;;5.70;2.67;;;18.60;69.50;;;;;;4993034;28;20489;-73
2023/05/18 00:08:52;;;;;;;5.23;2.30;;;18.50;69.40;;;;;;4975895;28;20865;-73
2023/05/18 00:11:18;;;;;;;7.00;2.93;;;18.50;69.40;;;;;;4975664;28;20174;-73
2023/05/18 00:13:50;;;;;;;3.70;2.17;;;18.50;69.50;;;;;;4975613;28;21016;-73
2023/05/18 00:16:18;;;;;;;4.57;2.07;;;18.50;69.40;;;;;;4959476;28;20523;-73
2023/05/18 00:18:45;;;;;;;3.90;2.73;;;18.50;69.50;;;;;;4991691;28;20456;-72
2023/05/18 00:21:15;;;;;;;3.83;2.47;;;18.50;69.50;;;;;;4973683;28;20414;-73
2023/05/18 00:23:48;;;;;;;4.93;2.80;;;18.40;69.40;;;;;;4940418;28;20449;-73
2023/05/18 00:26:14;;;;;;;3.47;1.90;;;18.40;69.50;;;;;;4940051;28;20401;-73
2023/05/18 00:28:48;;;;;;;3.97;2.50;;;18.40;69.50;;;;;;4957643;28;20426;-73
2023/05/18 00:31:16;;;;;;;3.13;2.40;;;18.40;70.30;;;;;;4974993;28;20481;-73
2023/05/18 00:33:44;;;;;;;4.30;2.47;;;18.40;69.50;;;;;;4957560;28;20443;-73
2023/05/18 00:36:12;;;;;;;5.30;2.50;;;18.30;69.40;;;;;;4975181;28;20426;-73
2023/05/18 00:38:40;;;;;;;6.67;2.83;;;18.30;69.50;;;;;;4957926;28;20442;-73
2023/05/18 00:41:09;;;;;;;5.97;2.40;;;18.30;69.40;;;;;;4957975;28;20452;-73
2023/05/18 00:43:34;;;;;;;4.23;2.03;;;18.30;69.50;;;;;;4941913;28;20513;-73
2023/05/18 00:46:01;;;;;;;6.20;2.40;;;18.30;69.50;;;;;;4957917;28;20834;-73
2023/05/18 00:48:27;;;;;;;5.87;2.20;;;18.30;69.50;;;;;;4957980;28;20437;-73
2023/05/18 00:50:58;;;;;;;9.87;2.70;;;18.20;69.40;;;;;;4941878;28;20423;-73
2023/05/18 00:53:27;;;;;;;5.40;2.40;;;18.20;69.40;;;;;;4941499;28;20532;-73
2023/05/18 00:55:53;;;;;;;4.00;2.23;;;18.20;69.50;;;;;;4941592;28;20496;-73
2023/05/18 00:58:19;;;;;;;3.13;2.00;;;18.20;69.60;;;;;;4941667;28;21009;-73
2023/05/18 01:00:45;;;;;;;5.40;2.53;;;18.20;69.60;;;;;;4941847;28;20418;-73
2023/05/18 01:03:14;;;;;;;5.13;2.60;;;18.10;69.50;;;;;;4957405;28;20473;-73
2023/05/18 01:05:54;;;;;;;5.47;3.23;;;18.10;69.50;;;;;;4957945;28;20445;-73
2023/05/18 01:08:22;;;;;;;3.50;2.03;;;18.10;69.50;;;;;;4941691;28;20853;-73
2023/05/18 01:10:55;;;;;;;5.67;2.70;;;18.10;69.60;;;;;;4958011;28;20821;-73
2023/05/18 01:13:37;;;;;;;3.93;2.40;;;18.10;69.60;;;;;;4941816;28;21052;-73
2023/05/18 01:16:10;;;;;;;3.90;2.30;;;18.00;69.50;;;;;;4941780;28;20446;-73
2023/05/18 01:18:54;;;;;;;4.47;2.57;;;18.00;69.50;;;;;;4957279;28;20468;-73
2023/05/18 01:21:32;;;;;;;3.10;2.00;;;18.00;69.50;;;;;;4941980;28;20950;-73
2023/05/18 01:24:02;;;;;;;5.47;1.97;;;18.00;69.60;;;;;;4941286;28;20428;-73
2023/05/18 01:26:36;;;;;;;3.70;2.40;;;18.00;69.70;;;;;;4957373;28;20411;-73
2023/05/18 01:29:07;;;;;;;6.90;1.93;;;18.00;69.70;;;;;;4957532;28;20452;-73
2023/05/18 01:31:35;;;;;;;3.40;2.23;;;18.00;69.70;;;;;;4957301;28;20482;-73
2023/05/18 01:34:01;;;;;;;8.47;2.93;;;17.90;69.60;;;;;;4941244;28;20457;-73
2023/05/18 01:36:28;;;;;;;3.60;2.20;;;17.90;69.60;;;;;;4957155;28;20418;-73
2023/05/18 01:39:00;;;;;;;3.20;1.77;;;17.90;69.70;;;;;;4957046;28;20496;-73
2023/05/18 01:41:30;;;;;;;3.33;2.20;;;17.90;69.70;;;;;;4974367;28;20403;-73
2023/05/18 01:44:21;;;;;;;5.00;2.83;;;17.90;69.80;;;;;;4957072;28;20437;-73
2023/05/18 01:47:07;;;;;;;3.47;2.10;;;17.80;69.60;;;;;;4961064;28;20409;-73
2023/05/18 01:49:39;;;;;;;4.93;2.30;;;17.80;69.70;;;;;;4960966;28;20457;-73
2023/05/18 01:52:12;;;;;;;6.00;2.83;;;17.80;69.80;;;;;;4978442;28;20420;-73
2023/05/18 01:54:47;;;;;;;5.07;2.20;;;17.80;69.80;;;;;;4978108;28;20456;-73
2023/05/18 01:57:15;;;;;;;3.93;2.37;;;17.80;69.80;;;;;;4944944;28;20937;-73
2023/05/18 01:59:44;;;;;;;2.80;2.00;;;17.80;69.80;;;;;;4945451;28;20446;-73
2023/05/18 02:02:16;;;;;;;3.30;2.03;;;17.70;69.60;;;;;;4945017;28;20806;-73
2023/05/18 02:04:44;;;;;;;2.17;1.93;;;17.70;69.70;;;;;;4944752;28;20445;-73
2023/05/18 02:07:15;;;;;;;4.43;2.43;;;17.70;69.80;;;;;;4945183;28;20444;-73
2023/05/18 02:09:43;;;;;;;4.43;2.20;;;17.70;69.80;;;;;;4960701;28;20445;-73
2023/05/18 02:12:11;;;;;;;4.90;2.03;;;17.70;69.80;;;;;;4929228;28;20435;-73
2023/05/18 02:14:37;;;;;;;6.60;2.63;;;17.60;69.80;;;;;;4928890;28;20460;-73
2023/05/18 02:17:05;;;;;;;2.70;2.00;;;17.60;69.80;;;;;;4944549;28;20434;-73
2023/05/18 02:19:37;;;;;;;3.40;2.17;;;17.60;69.80;;;;;;4960493;28;20476;-73
2023/05/18 02:22:06;;;;;;;4.30;2.30;;;17.60;69.90;;;;;;4944603;28;20917;-73
2023/05/18 02:24:33;;;;;;;4.90;2.43;;;17.60;69.90;;;;;;4928634;28;20503;-73
2023/05/18 02:27:04;;;;;;;5.40;1.90;;;17.60;70.00;;;;;;4945109;28;20441;-73
2023/05/18 02:29:32;;;;;;;8.40;2.47;;;17.60;70.00;;;;;;4944846;28;20520;-73
2023/05/18 02:32:00;;;;;;;4.50;2.30;;;17.50;69.90;;;;;;4944682;28;20520;-73
2023/05/18 02:34:30;;;;;;;4.33;2.20;;;17.50;69.90;;;;;;4943099;28;20449;-75
2023/05/18 02:36:56;;;;;;;3.70;2.10;;;17.50;69.80;;;;;;4942552;28;20953;-75
2023/05/18 02:39:22;;;;;;;5.63;2.27;;;17.50;69.90;;;;;;4958494;28;21122;-75
2023/05/18 02:41:51;;;;;;;5.23;2.30;;;17.50;70.00;;;;;;4958590;28;20448;-76
2023/05/18 02:44:17;;;;;;;5.60;2.40;;;17.40;70.00;;;;;;4958468;28;20529;-75
2023/05/18 02:46:45;;;;;;;6.47;3.40;;;17.40;70.00;;;;;;4958426;28;21029;-75
2023/05/18 02:49:13;;;;;;;9.00;3.07;;;17.40;70.10;;;;;;4958511;28;20488;-75
2023/05/18 02:51:44;;;;;;;6.80;2.80;;;17.40;70.10;;;;;;4958147;28;20817;-75
2023/05/18 02:54:11;;;;;;;3.47;2.00;;;17.40;70.20;;;;;;4942438;28;20964;-75
2023/05/18 02:56:42;;;;;;;4.17;2.93;;;17.40;70.20;;;;;;4957703;28;20417;-76
2023/05/18 02:59:20;;;;;;;3.30;2.10;;;17.40;70.20;;;;;;4942316;28;20466;-75
2023/05/18 03:01:51;;;;;;;5.60;2.30;;;17.30;70.20;;;;;;4954456;28;20428;-76
2023/05/18 03:04:20;;;;;;;5.53;2.47;;;17.30;70.20;;;;;;4961377;28;20832;-75
2023/05/18 03:06:51;;;;;;;5.27;2.27;;;17.30;70.10;;;;;;4960451;28;20439;-75
2023/05/18 03:09:18;;;;;;;4.90;2.60;;;17.30;70.10;;;;;;4961458;28;20436;-75
2023/05/18 03:11:45;;;;;;;3.93;2.50;;;17.30;70.30;;;;;;4977182;28;20432;-75
2023/05/18 03:14:13;;;;;;;2.67;1.90;;;17.20;70.10;;;;;;4946131;28;20527;-75
2023/05/18 03:16:42;;;;;;;4.60;2.20;;;17.20;70.20;;;;;;4977021;28;20678;-75
2023/05/18 03:19:17;;;;;;;7.20;3.10;;;17.20;70.30;;;;;;4961535;28;20523;-75
2023/05/18 03:21:48;;;;;;;4.70;3.03;;;17.20;71.30;;;;;;4976962;28;20403;-75
2023/05/18 03:24:15;;;;;;;8.60;2.77;;;17.20;70.40;;;;;;4977124;28;20957;-75
2023/05/18 03:26:45;;;;;;;2.67;2.00;;;17.10;70.40;;;;;;4946034;28;20425;-75
2023/05/18 03:29:12;;;;;;;4.87;2.60;;;17.20;70.40;;;;;;4994183;28;20476;-75
2023/05/18 03:31:43;;;;;;;5.47;2.67;;;17.10;70.20;;;;;;4977076;28;20423;-75
2023/05/18 03:34:11;;;;;;;3.80;2.83;;;17.10;71.10;;;;;;4960688;28;20556;-75
2023/05/18 03:36:37;;;;;;;5.13;2.60;;;17.10;70.40;;;;;;4960943;28;20415;-75
2023/05/18 03:39:08;;;;;;;5.03;2.20;;;17.10;70.40;;;;;;4976835;28;20591;-75
2023/05/18 03:41:39;;;;;;;4.80;2.27;;;17.00;71.20;;;;;;4977037;28;20454;-75
2023/05/18 03:44:07;;;;;;;5.50;2.90;;;17.00;70.30;;;;;;4960498;28;20432;-75
2023/05/18 03:46:36;;;;;;;3.90;2.33;;;17.00;70.30;;;;;;4961156;28;20503;-75
2023/05/18 03:49:06;;;;;;;6.50;2.70;;;17.00;70.30;;;;;;4976627;28;20414;-75
2023/05/18 03:51:37;;;;;;;3.73;2.60;;;17.00;70.40;;;;;;4961298;28;20411;-75
2023/05/18 03:54:03;;;;;;;3.20;2.27;;;17.00;70.50;;;;;;4960427;28;20444;-75
2023/05/18 03:56:34;;;;;;;5.23;2.67;;;16.90;70.30;;;;;;4960130;28;20443;-75
2023/05/18 03:59:05;;;;;;;5.53;2.53;;;16.90;71.20;;;;;;4976798;28;21069;-75
2023/05/18 04:01:32;;;;;;;4.80;2.77;;;16.90;70.50;;;;;;4976286;28;20457;-75
2023/05/18 04:03:59;;;;;;;5.53;3.73;;;16.90;70.70;;;;;;4976307;28;20448;-75
2023/05/18 04:06:28;;;;;;;5.43;2.70;;;16.90;70.60;;;;;;4975994;28;20443;-75
2023/05/18 04:08:54;;;;;;;5.23;2.60;;;16.90;70.60;;;;;;4944004;28;20438;-75
2023/05/18 04:11:25;;;;;;;3.60;2.37;;;16.90;70.70;;;;;;4975928;28;20497;-75
2023/05/18 04:13:56;;;;;;;7.33;2.90;;;16.80;70.60;;;;;;4976511;28;20947;-75
2023/05/18 04:16:26;;;;;;;4.23;2.20;;;16.80;70.60;;;;;;4976186;28;20439;-75
2023/05/18 04:18:54;;;;;;;5.40;3.07;;;16.80;70.70;;;;;;4976098;28;20451;-75
2023/05/18 04:21:20;;;;;;;5.53;2.73;;;16.80;70.90;;;;;;4975724;28;20790;-75
2023/05/18 04:23:47;;;;;;;3.30;2.20;;;16.80;71.00;;;;;;4959929;28;20447;-75
2023/05/18 04:26:18;;;;;;;3.57;2.57;;;16.70;70.80;;;;;;4943921;28;20271;-75
2023/05/18 04:28:48;;;;;;;5.60;2.63;;;16.70;70.90;;;;;;4960030;28;20442;-75
2023/05/18 04:31:16;;;;;;;6.03;2.97;;;16.70;70.90;;;;;;4975626;28;20600;-75
2023/05/18 04:33:47;;;;;;;4.43;2.47;;;16.70;70.90;;;;;;4960040;28;20493;-75
2023/05/18 04:36:18;;;;;;;8.70;2.90;;;16.70;71.00;;;;;;4959803;28;20758;-75
2023/05/18 04:38:49;;;;;;;5.60;2.67;;;16.60;71.00;;;;;;4959718;28;20682;-75
2023/05/18 04:41:19;;;;;;;4.60;3.00;;;16.60;71.00;;;;;;4959467;28;20776;-75
2023/05/18 04:43:46;;;;;;;4.40;2.43;;;16.60;71.00;;;;;;4975600;28;20456;-75
2023/05/18 04:46:17;;;;;;;5.80;2.60;;;16.60;71.10;;;;;;4959370;28;20655;-75
2023/05/18 04:48:48;;;;;;;3.80;2.60;;;16.60;71.10;;;;;;4943499;28;20444;-75
2023/05/18 04:51:22;;;;;;;4.20;2.20;;;16.60;71.20;;;;;;4959896;28;20436;-75
2023/05/18 04:53:54;;;;;;;7.50;3.00;;;16.60;71.30;;;;;;4959336;28;20533;-75
2023/05/18 04:56:21;;;;;;;3.00;2.47;;;16.60;71.40;;;;;;4959522;28;20981;-75
2023/05/18 04:58:48;;;;;;;5.83;2.90;;;16.60;71.30;;;;;;4975312;28;20611;-75
2023/05/18 05:01:14;;;;;;;8.10;2.83;;;16.60;71.50;;;;;;4975198;28;20422;-75
2023/05/18 05:03:41;;;;;;;4.33;2.90;;;16.50;71.50;;;;;;4959225;28;20439;-75
2023/05/18 05:06:12;;;;;;;4.33;2.47;;;16.50;71.60;;;;;;4975841;28;20924;-75
2023/05/18 05:08:40;;;;;;;4.27;3.03;;;16.50;71.70;;;;;;4958855;28;20454;-75
2023/05/18 05:11:06;;;;;;;4.20;2.83;;;16.50;71.70;;;;;;4943215;28;20919;-75
2023/05/18 05:13:35;;;;;;;3.53;2.30;;;16.50;71.70;;;;;;4975273;28;20773;-75
2023/05/18 05:16:02;;;;;;;4.23;2.60;;;16.50;71.90;;;;;;4959051;28;20209;-75
2023/05/18 05:18:31;;;;;;;5.73;2.50;;;16.40;71.80;;;;;;4958869;28;20456;-75
2023/05/18 05:20:58;;;;;;;4.83;2.63;;;16.40;71.90;;;;;;4959229;28;20454;-75
2023/05/18 05:23:26;;;;;;;5.63;3.03;;;16.40;71.90;;;;;;4959325;28;20460;-75
2023/05/18 05:25:57;;;;;;;3.87;3.03;;;16.40;71.90;;;;;;4958720;28;20416;-75
2023/05/18 05:28:25;;;;;;;6.27;3.30;;;16.40;71.90;;;;;;4959003;28;20951;-75
2023/05/18 05:30:51;;;;;;;6.80;3.03;;;16.40;71.90;;;;;;4955723;28;20443;-75
2023/05/18 05:33:17;;;;;;;6.30;2.40;;;16.40;72.10;;;;;;4955392;28;20447;-75
2023/05/18 05:35:45;;;;;;;3.00;2.50;;;16.30;72.00;;;;;;4955687;28;20455;-75
2023/05/18 05:38:14;;;;;;;8.77;2.57;;;16.30;72.00;;;;;;4924309;28;20900;-75
2023/05/18 05:40:41;;;;;;;4.00;2.80;;;16.30;72.00;;;;;;4939608;28;21039;-75
2023/05/18 05:43:08;;;;;;;5.40;3.17;;;16.30;72.10;;;;;;4955439;28;20564;-75
2023/05/18 05:45:37;;;;;;;4.77;2.67;;;16.30;72.20;;;;;;4939814;28;20411;-75
2023/05/18 05:48:06;;;;;;;7.70;2.90;;;16.30;72.30;;;;;;4924038;28;20530;-75
2023/05/18 05:50:36;;;;;;;9.63;3.27;;;16.30;72.30;;;;;;4940420;28;20793;-75
2023/05/18 05:53:06;;;;;;;4.77;2.50;;;16.30;72.30;;;;;;4939502;28;20528;-75
2023/05/18 05:55:40;;;;;;;5.80;2.80;;;16.30;72.40;;;;;;4939359;28;20434;-75
2023/05/18 05:58:13;;;;;;;8.83;3.20;;;16.20;72.30;;;;;;4972576;28;20470;-75
2023/05/18 06:00:44;;;;;;;6.80;2.80;;;16.20;72.30;;;;;;4939490;28;20433;-75
2023/05/18 06:03:13;;;;;;;5.23;3.10;;;16.20;72.30;;;;;;4955281;28;20514;-75
2023/05/18 06:05:42;;;;;;;5.70;2.90;;;16.20;72.40;;;;;;4972471;28;20436;-75
2023/05/18 06:08:10;;;;;;;4.70;3.90;;;16.20;72.50;;;;;;4972656;28;20404;-75
2023/05/18 06:10:40;;;;;;;5.17;2.80;;;16.20;72.50;;;;;;4955903;28;20927;-75
2023/05/18 06:13:06;;;;;;;4.30;2.63;;;16.10;72.40;;;;;;4954961;28;20447;-75
2023/05/18 06:15:49;;;;;;;4.33;2.87;;;16.20;72.50;;;;;;4939218;28;20449;-75
2023/05/18 06:18:15;;;;;;;4.87;3.30;;;16.20;72.60;;;;;;4955008;28;20461;-75
2023/05/18 06:20:41;;;;;;;5.13;3.10;;;16.10;72.50;;;;;;4923696;28;20426;-75
2023/05/18 06:23:07;;;;;;;6.70;2.70;;;16.10;72.50;;;;;;4939066;28;20448;-75
2023/05/18 06:25:52;;;;;;;5.00;2.80;;;16.10;72.60;;;;;;4957846;28;20505;-75
2023/05/18 06:28:47;;;;;;;7.90;3.37;;;16.10;72.60;;;;;;4926943;28;20853;-75
2023/05/18 06:31:38;;;;;;;5.97;3.63;;;16.10;72.60;;;;;;4953400;28;20452;-75
2023/05/18 06:34:12;;;;;;;4.20;2.87;;;16.10;72.70;;;;;;4978467;28;20441;-75
2023/05/18 06:36:38;;;;;;;7.40;2.90;;;16.10;72.80;;;;;;4977981;28;20510;-75
2023/05/18 06:39:07;;;;;;;4.90;2.93;;;16.10;72.80;;;;;;4961650;28;20469;-75
2023/05/18 06:41:33;;;;;;;5.37;2.87;;;16.10;72.80;;;;;;4977839;28;20457;-75
2023/05/18 06:44:02;;;;;;;4.03;2.67;;;16.10;72.80;;;;;;4977817;28;20438;-75
2023/05/18 06:46:50;;;;;;;5.10;2.80;;;16.10;72.90;;;;;;4993948;28;20470;-75
2023/05/18 06:49:22;;;;;;;4.70;2.53;;;16.10;73.00;;;;;;4977851;28;20418;-75
2023/05/18 06:51:50;;;;;;;7.93;2.60;;;16.10;73.10;;;;;;4961724;28;20512;-75
2023/05/18 06:54:21;;;;;;;5.03;2.80;;;16.10;73.10;;;;;;4962006;28;20529;-75
2023/05/18 06:56:50;;;;;;;5.97;2.53;;;16.10;73.10;;;;;;4961433;28;20508;-75
2023/05/18 06:59:23;;;;;;;4.10;2.90;;;16.10;73.20;;;;;;4977536;28;20451;-75
2023/05/18 07:01:49;;;;;;;2.77;2.40;;;16.10;73.20;;;;;;4994683;28;20468;-75
2023/05/18 07:04:18;;;;;;;5.00;2.90;;;16.10;73.20;;;;;;4978048;28;20446;-75
2023/05/18 07:06:45;;;;;;;7.33;2.83;;;16.10;73.20;;;;;;4977585;28;20448;-75
2023/05/18 07:09:11;;;;;;;4.70;2.63;;;16.10;73.30;;;;;;4977383;28;20853;-76
2023/05/18 07:11:40;;;;;;;6.30;2.90;;;16.10;73.40;;;;;;4977335;28;20518;-75
2023/05/18 07:14:05;;;;;;;3.60;2.50;;;16.10;73.40;;;;;;4994500;28;21069;-75
2023/05/18 07:16:31;;;;;;;5.13;3.00;;;16.10;73.40;;;;;;4977277;28;20440;-75
2023/05/18 07:18:57;;;;;;;5.73;2.80;;;16.10;73.50;;;;;;4977431;28;20455;-75
2023/05/18 07:21:25;;;;;;;3.57;3.00;;;16.10;73.50;;;;;;4960851;28;20931;-75
2023/05/18 07:23:53;;;;;;;3.50;2.27;;;16.10;73.50;;;;;;4994515;28;20426;-75
2023/05/18 07:26:22;;;;;;;3.87;2.53;;;16.20;73.70;;;;;;4961148;28;20429;-75
2023/05/18 07:28:50;;;;;;;5.40;3.37;;;16.20;73.70;;;;;;4977030;28;20416;-75
2023/05/18 07:31:20;;;;;;;4.70;2.57;;;16.20;73.70;;;;;;4994153;28;20484;-75
2023/05/18 07:33:48;;;;;;;5.17;2.70;;;16.20;73.70;;;;;;4977361;28;21057;-75
2023/05/18 07:36:17;;;;;;;2.63;2.40;;;16.20;73.70;;;;;;4976737;28;20500;-75
2023/05/18 07:38:45;;;;;;;3.83;2.73;;;16.20;73.70;;;;;;4994212;28;20470;-75
2023/05/18 07:41:11;;;;;;;6.47;2.50;;;16.20;73.70;;;;;;4960486;28;20455;-75
2023/05/18 07:43:39;;;;;;;4.73;2.60;;;16.20;73.60;;;;;;4976281;28;20432;-75
2023/05/18 07:46:05;;;;;;;5.10;2.87;;;16.20;73.60;;;;;;4944948;28;20183;-75
2023/05/18 07:48:34;;;;;;;4.93;2.50;;;16.20;73.40;;;;;;4992175;28;20528;-75
2023/05/18 07:50:59;;;;;;;4.80;2.70;;;16.20;73.50;;;;;;4994216;28;20491;-75
2023/05/18 07:53:26;;;;;;;4.00;2.20;;;16.20;73.50;;;;;;4993316;28;20443;-75
2023/05/18 07:55:59;;;;;;;2.87;2.20;;;16.30;73.60;;;;;;4976849;28;20500;-75
2023/05/18 07:58:27;;;;;;;4.30;2.83;;;16.20;73.50;;;;;;4993951;28;20464;-75
2023/05/18 08:00:55;;;;;;;3.83;2.27;;;16.30;73.70;;;;;;4993075;28;20430;-76
2023/05/18 08:03:26;;;;;;;3.33;2.70;;;16.30;73.70;;;;;;4984847;28;20909;-72
2023/05/18 08:05:52;;;;;;;5.10;2.60;;;16.30;73.70;;;;;;4988613;28;20416;-75
2023/05/18 08:08:19;;;;;;;4.20;2.67;;;16.30;73.70;;;;;;4993354;28;20470;-78
2023/05/18 08:10:45;;;;;;;2.57;2.30;;;16.30;73.70;;;;;;4979375;28;20438;-78
2023/05/18 08:13:11;;;;;;;6.13;2.93;;;16.30;73.80;;;;;;4976244;28;20531;-77
2023/05/18 08:15:39;;;;;;;4.13;2.53;;;16.40;73.80;;;;;;4973242;28;20725;-78
2023/05/18 08:18:07;;;;;;;4.30;3.20;;;16.40;73.70;;;;;;4997386;28;20521;-78
2023/05/18 08:20:34;;;;;;;4.40;3.10;;;16.40;73.70;;;;;;4961270;28;20431;-78
2023/05/18 08:23:00;;;;;;;3.27;2.27;;;16.40;73.70;;;;;;4969213;28;20570;-77
2023/05/18 08:25:26;;;;;;;4.70;2.63;;;16.40;73.60;;;;;;4959290;28;20447;-78
2023/05/18 08:27:52;;;;;;;5.13;2.20;;;16.40;73.60;;;;;;4978605;28;20508;-77
2023/05/18 08:30:20;;;;;;;5.33;2.47;;;16.50;73.60;;;;;;4962275;28;20456;-78
2023/05/18 08:32:47;;;;;;;4.07;2.33;;;16.40;73.40;;;;;;4979983;28;20446;-78
2023/05/18 08:35:13;;;;;;;4.83;2.50;;;16.50;73.70;;;;;;4980823;28;20775;-76
2023/05/18 08:37:39;;;;;;;4.83;2.83;;;16.50;73.70;;;;;;4980640;28;20438;-76
2023/05/18 08:40:10;;;;;;;9.27;2.90;;;16.50;73.60;;;;;;4997844;28;20461;-78
2023/05/18 08:42:45;;;;;;;5.17;2.53;;;16.50;73.40;;;;;;4960448;28;20440;-78
2023/05/18 08:45:26;;;;;;;5.20;2.70;;;16.60;73.30;;;;;;4960502;28;20441;-78
2023/05/18 08:47:58;;;;;;;4.10;2.83;;;16.60;73.30;;;;;;4970227;28;20446;-78
2023/05/18 08:50:28;;;;;;;3.80;2.27;;;16.60;73.20;;;;;;4997956;28;20413;-77
2023/05/18 08:53:00;;;;;;;7.10;2.57;;;16.60;73.00;;;;;;4977410;28;20481;-78
2023/05/18 08:55:28;;;;;;;4.83;2.90;;;16.70;73.00;;;;;;4983136;28;20412;-76
2023/05/18 08:58:00;;;;;;;5.00;2.80;;;16.70;73.00;;;;;;4990878;28;20905;-76
2023/05/18 09:00:28;;;;;;;4.23;2.50;;;16.70;73.00;;;;;;4961143;28;20473;-77
2023/05/18 09:02:55;;;;;;;4.23;2.60;;;16.70;72.60;;;;;;4977204;28;20468;-79
2023/05/18 09:05:22;;;;;;;4.33;2.60;;;16.80;72.70;;;;;;4962275;28;20430;-78
2023/05/18 09:07:50;;;;;;;5.60;2.50;;;16.80;72.70;;;;;;4963104;28;20446;-79
2023/05/18 09:10:17;;;;;;;5.83;2.73;;;16.80;72.80;;;;;;4962576;28;20547;-74
2023/05/18 09:12:47;;;;;;;4.10;2.70;;;16.90;73.70;;;;;;4976439;28;20459;-77
2023/05/18 09:15:16;;;;;;;3.90;2.60;;;16.90;72.70;;;;;;4959972;28;20434;-77
2023/05/18 09:17:42;;;;;;;6.63;3.10;;;16.90;72.60;;;;;;4977251;28;20827;-76
2023/05/18 09:20:11;;;;;;;5.30;3.03;;;16.90;72.50;;;;;;4975274;28;20463;-76
2023/05/18 09:22:40;;;;;;;4.80;2.60;;;17.00;72.20;;;;;;4974520;28;20633;-77
2023/05/18 09:25:09;;;;;;;5.73;2.90;;;17.00;72.10;;;;;;4958484;28;21079;-77
2023/05/18 09:27:37;;;;;;;4.90;2.27;;;17.00;72.10;;;;;;4958740;28;20420;-76
2023/05/18 09:30:10;;;;;;;3.47;2.67;;;17.10;72.00;;;;;;4958604;28;20455;-76
2023/05/18 09:32:38;;;;;;;5.07;2.70;;;17.10;71.50;;;;;;4974879;28;20456;-77
2023/05/18 09:35:10;;;;;;;6.97;2.50;;;17.10;71.70;;;;;;4974210;28;20470;-76
2023/05/18 09:37:42;;;;;;;4.00;2.20;;;17.20;72.00;;;;;;4973771;28;20418;-77
2023/05/18 09:40:11;;;;;;;5.20;2.60;;;17.20;71.80;;;;;;4972072;28;20474;-77
2023/05/18 09:42:38;;;;;;;4.30;2.60;;;17.20;71.70;;;;;;4973761;28;20412;-77
2023/05/18 09:45:17;;;;;;;4.33;2.30;;;17.20;71.30;;;;;;4972941;28;20535;-77
2023/05/18 09:47:43;;;;;;;4.03;2.63;;;17.30;71.70;;;;;;4990253;28;20948;-77
2023/05/18 09:50:09;;;;;;;6.03;2.67;;;17.30;71.70;;;;;;4966135;28;20456;-76
2023/05/18 09:52:42;;;;;;;6.10;2.50;;;17.30;71.70;;;;;;4955439;28;20435;-76
2023/05/18 09:55:10;;;;;;;5.87;2.67;;;17.40;71.60;;;;;;4957358;28;20442;-77
2023/05/18 09:57:44;;;;;;;2.60;2.30;;;17.40;71.50;;;;;;4992168;28;20422;-77
2023/05/18 10:00:18;;;;;;;3.17;2.40;;;17.40;71.10;;;;;;4991143;28;20477;-77
2023/05/18 10:02:51;;;;;;;3.00;2.17;;;17.40;70.90;;;;;;4955692;28;20476;-76
2023/05/18 10:05:30;;;;;;;5.97;2.70;;;17.50;71.10;;;;;;4972195;28;20966;-77
2023/05/18 10:07:57;;;;;;;4.57;3.00;;;17.50;71.30;;;;;;4968455;28;20432;-76
2023/05/18 10:10:28;;;;;;;3.03;2.33;;;17.60;71.40;;;;;;4958843;28;20444;-76
2023/05/18 10:12:57;;;;;;;5.40;2.83;;;17.60;71.50;;;;;;4943773;28;20456;-77
2023/05/18 10:15:26;;;;;;;4.33;2.30;;;17.60;71.60;;;;;;4959435;28;20417;-77
2023/05/18 10:17:56;;;;;;;4.90;2.60;;;17.70;71.70;;;;;;4958886;28;20524;-76
2023/05/18 10:20:25;;;;;;;5.57;2.70;;;17.70;71.70;;;;;;4976425;28;20434;-77
2023/05/18 10:22:54;;;;;;;3.97;2.33;;;17.70;71.50;;;;;;4958865;28;20959;-76
2023/05/18 10:25:25;;;;;;;8.70;2.60;;;17.80;71.50;;;;;;4959391;28;20441;-77
2023/05/18 10:28:01;;;;;;;3.20;2.27;;;17.80;71.60;;;;;;4984357;28;20447;-76
2023/05/18 10:30:28;;;;;;;5.50;2.40;;;17.90;71.40;;;;;;4962349;28;20490;-77
2023/05/18 10:33:00;;;;;;;6.10;3.00;;;17.90;71.60;;;;;;4967943;28;20486;-77
2023/05/18 10:35:27;;;;;;;4.17;2.70;;;18.00;71.60;;;;;;4974982;28;20405;-76
2023/05/18 10:37:56;;;;;;;4.00;2.33;;;18.00;71.50;;;;;;4967665;28;20436;-76
2023/05/18 10:40:27;;;;;;;7.20;3.17;;;18.00;71.00;;;;;;4978490;28;20855;-76
2023/05/18 10:42:57;;;;;;;5.60;2.50;;;18.10;71.30;;;;;;4945779;28;20543;-76
2023/05/18 10:45:25;;;;;;;5.13;2.77;;;18.10;71.20;;;;;;4995283;28;20403;-76
2023/05/18 10:47:58;;;;;;;5.10;2.40;;;18.10;71.30;;;;;;4958071;28;20461;-76
2023/05/18 10:50:28;;;;;;;2.77;1.63;;;18.10;71.30;;;;;;4942894;28;20811;-76
2023/05/18 10:52:59;;;;;;;9.80;3.17;;;18.20;71.30;;;;;;4978926;28;20481;-77
2023/05/18 10:55:29;;;;;;;4.63;2.80;;;18.20;71.10;;;;;;4979423;28;20860;-76
2023/05/18 10:58:04;;;;;;;3.50;2.30;;;18.20;71.10;;;;;;4979613;28;20468;-78
2023/05/18 11:00:37;;;;;;;5.13;2.27;;;18.30;71.10;;;;;;4997625;28;20516;-80
2023/05/18 11:03:09;;;;;;;5.67;2.07;;;18.40;71.30;;;;;;4998136;28;20444;-77
2023/05/18 11:05:38;;;;;;;4.40;2.87;;;18.30;71.20;;;;;;4997787;28;20501;-77
2023/05/18 11:08:05;;;;;;;4.60;2.43;;;18.40;71.20;;;;;;4997430;28;20526;-78
2023/05/18 11:10:46;;;;;;;4.27;2.20;;;18.50;71.50;;;;;;4979169;28;20420;-80
2023/05/18 11:13:21;;;;;;;4.80;2.27;;;18.50;71.00;;;;;;4962564;28;20954;-76
2023/05/18 11:15:53;;;;;;;3.93;2.53;;;18.50;71.00;;;;;;4953122;28;20460;-75
2023/05/18 11:18:19;;;;;;;4.57;2.30;;;18.50;71.00;;;;;;4975167;28;20503;-78
2023/05/18 11:20:45;;;;;;;4.07;2.40;;;18.60;71.20;;;;;;4970034;28;20445;-75
2023/05/18 11:23:17;;;;;;;8.60;3.20;;;18.60;71.10;;;;;;4997148;28;20206;-79
2023/05/18 11:25:43;;;;;;;5.27;2.20;;;18.60;71.00;;;;;;4977946;28;20438;-77
2023/05/18 11:28:12;;;;;;;5.50;2.60;;;18.70;71.10;;;;;;4981678;28;20440;-76
2023/05/18 11:30:43;;;;;;;3.23;2.10;;;18.70;71.00;;;;;;4979226;28;20442;-77
2023/05/18 11:33:22;;;;;;;5.10;2.60;;;18.70;70.80;;;;;;4976785;28;20453;-76
2023/05/18 11:35:54;;;;;;;6.23;3.13;;;18.80;70.90;;;;;;4957531;28;20431;-78
2023/05/18 11:38:44;;;;;;;5.03;2.57;;;18.80;70.80;;;;;;4959566;28;20552;-78
2023/05/18 11:41:37;;;;;;;4.73;2.70;;;18.80;71.10;;;;;;4990179;28;20429;-77
2023/05/18 11:44:15;;;;;;;5.23;3.27;;;18.90;71.10;;;;;;4975680;28;20564;-77
2023/05/18 11:46:58;;;;;;;9.27;3.07;;;18.90;70.40;;;;;;4960093;28;20609;-78
2023/05/18 11:49:27;;;;;;;5.40;2.67;;;18.90;70.00;;;;;;4976403;28;20446;-78
2023/05/18 11:52:03;;;;;;;7.03;2.77;;;19.00;69.70;;;;;;4956837;28;20434;-78
2023/05/18 11:54:46;;;;;;;4.23;2.20;;;19.00;69.60;;;;;;4971265;28;20448;-78
2023/05/18 11:57:14;;;;;;;4.23;2.60;;;19.00;69.30;;;;;;4995215;28;20762;-78
2023/05/18 11:59:53;;;;;;;4.70;2.27;;;19.10;69.40;;;;;;4993670;28;20466;-78
2023/05/18 12:02:31;;;;;;;3.80;2.97;;;19.10;69.50;;;;;;4994601;28;20888;-79
2023/05/18 12:05:01;;;;;;;4.07;2.37;;;19.10;69.60;;;;;;4994075;28;20439;-78
2023/05/18 12:07:34;;;;;;;5.57;2.93;;;19.10;69.50;;;;;;4988852;28;20418;-78
2023/05/18 12:10:09;;;;;;;7.03;3.30;;;19.20;69.80;;;;;;4957693;28;20462;-78
2023/05/18 12:12:35;;;;;;;4.80;3.20;;;19.20;69.60;;;;;;4957880;28;20417;-78
2023/05/18 12:15:04;;;;;;;3.83;2.50;;;19.20;69.60;;;;;;4958201;28;20508;-78
2023/05/18 12:17:43;;;;;;;4.13;2.57;;;19.30;69.80;;;;;;4974888;28;20453;-77
2023/05/18 12:20:12;;;;;;;4.53;2.80;;;19.30;69.60;;;;;;4970571;28;20504;-78
2023/05/18 12:22:42;;;;;;;3.20;2.50;;;19.40;69.50;;;;;;4973340;28;20398;-78
2023/05/18 12:25:11;;;;;;;4.90;2.57;;;19.40;69.40;;;;;;4974886;28;20457;-78
2023/05/18 12:27:42;;;;;;;6.13;2.57;;;19.40;69.30;;;;;;4976383;28;20398;-77
2023/05/18 12:30:19;;;;;;;6.03;3.03;;;19.40;69.30;;;;;;4992739;28;20445;-77
2023/05/18 12:32:56;;;;;;;3.60;2.50;;;19.40;69.40;;;;;;4969643;28;20497;-77
2023/05/18 12:35:22;;;;;;;4.67;2.70;;;19.50;69.70;;;;;;4966288;28;20517;-77
2023/05/18 12:37:48;;;;;;;3.70;2.30;;;19.50;69.60;;;;;;4984396;28;20478;-78
2023/05/18 12:40:17;;;;;;;4.30;2.87;;;19.60;69.60;;;;;;4980854;28;20489;-78
2023/05/18 12:42:58;;;;;;;5.67;3.00;;;19.60;69.50;;;;;;4988191;28;20461;-77
2023/05/18 12:45:27;;;;;;;4.93;2.70;;;19.60;69.40;;;;;;4975099;28;20520;-77
2023/05/18 12:47:53;;;;;;;4.60;3.23;;;19.70;69.40;;;;;;4974685;28;20951;-78
2023/05/18 12:50:25;;;;;;;3.83;3.00;;;19.70;69.40;;;;;;4973436;28;20792;-78
2023/05/18 12:52:51;;;;;;;2.87;2.30;;;19.70;69.20;;;;;;4983631;28;20476;-77
2023/05/18 12:55:22;;;;;;;5.40;2.67;;;19.70;69.10;;;;;;4993437;28;20454;-78
2023/05/18 12:58:15;;;;;;;3.20;2.33;;;19.80;69.20;;;;;;4974479;28;20500;-77
2023/05/18 13:00:46;;;;;;;3.47;2.40;;;19.80;69.00;;;;;;4975610;28;20826;-78
2023/05/18 13:03:20;;;;;;;5.50;2.87;;;19.80;68.90;;;;;;4989985;28;20465;-75